createdAt,value
2019-04-30T00:01:43.098Z,90.70
2019-04-30T00:04:15.646Z,90.70
2019-04-30T00:06:45.497Z,90.70
2019-04-30T00:09:19.067Z,90.60
2019-04-30T00:11:50.679Z,91.00
2019-04-30T00:14:18.760Z,90.60
2019-04-30T00:16:48.245Z,90.40
2019-04-30T00:19:19.665Z,90.50
2019-04-30T00:21:57.061Z,90.80
2019-04-30T00:24:21.065Z,91.10
2019-04-30T00:26:52.535Z,91.20
2019-04-30T00:29:26.849Z,91.50
2019-04-30T00:31:52.306Z,91.60
2019-04-30T00:34:21.769Z,91.50
2019-04-30T00:36:51.321Z,91.70
2019-04-30T00:39:20.880Z,91.50
2019-04-30T00:41:50.446Z,91.50
2019-04-30T00:44:23.855Z,91.70
2019-04-30T00:46:50.707Z,91.70
2019-04-30T00:49:23.397Z,91.70
2019-04-30T00:51:54.726Z,91.80
2019-04-30T00:54:26.718Z,92.00
2019-04-30T00:56:57.502Z,91.80
2019-04-30T00:59:25.016Z,91.80
2019-04-30T01:01:59.182Z,92.10
2019-04-30T01:04:30.336Z,92.20
2019-04-30T01:07:00.316Z,92.30
2019-04-30T01:09:31.039Z,92.40
2019-04-30T01:12:00.312Z,92.00
2019-04-30T01:14:31.978Z,92.00
2019-04-30T01:17:03.870Z,92.00
2019-04-30T01:19:32.854Z,91.90
2019-04-30T01:22:02.417Z,92.00
2019-04-30T01:24:32.820Z,92.40
2019-04-30T01:27:06.873Z,92.90
2019-04-30T01:29:41.465Z,93.00
2019-04-30T01:32:12.231Z,93.20
2019-04-30T01:34:39.517Z,93.30
2019-04-30T01:37:08.793Z,93.60
2019-04-30T01:39:39.408Z,93.60
2019-04-30T01:42:11.405Z,93.70
2019-04-30T01:44:43.513Z,93.90
2019-04-30T01:47:10.973Z,93.70
2019-04-30T01:49:42.910Z,93.70
2019-04-30T01:52:11.253Z,93.90
2019-04-30T01:54:40.818Z,94.20
2019-04-30T01:57:20.571Z,94.30
2019-04-30T02:00:06.821Z,94.60
2019-04-30T02:02:39.446Z,94.60
2019-04-30T02:05:08.997Z,95.60
2019-04-30T02:07:40.353Z,96.10
2019-04-30T02:10:10.972Z,95.90
2019-04-30T02:12:40.258Z,95.70
2019-04-30T02:15:09.638Z,96.10
2019-04-30T02:17:38.982Z,96.10
2019-04-30T02:20:08.958Z,96.40
2019-04-30T02:22:38.957Z,96.10
2019-04-30T02:25:09.730Z,96.20
2019-04-30T02:27:39.151Z,96.00
2019-04-30T02:30:11.067Z,95.90
2019-04-30T02:32:39.740Z,95.90
2019-04-30T02:35:13.750Z,95.90
2019-04-30T02:38:01.105Z,95.50
2019-04-30T02:40:32.319Z,95.90
2019-04-30T02:43:02.666Z,96.00
2019-04-30T02:45:33.299Z,96.00
2019-04-30T02:48:03.522Z,96.00
2019-04-30T02:50:35.506Z,95.70
2019-04-30T02:53:09.729Z,95.80
2019-04-30T02:55:45.218Z,96.00
2019-04-30T02:58:14.504Z,96.20
2019-04-30T03:00:43.782Z,96.20
2019-04-30T03:03:13.066Z,96.10
2019-04-30T03:05:42.582Z,96.30
2019-04-30T03:08:11.870Z,96.40
2019-04-30T03:10:41.458Z,96.00
2019-04-30T03:13:10.747Z,96.00
2019-04-30T03:15:40.029Z,96.00
2019-04-30T03:18:10.954Z,96.10
2019-04-30T03:20:41.884Z,96.00
2019-04-30T03:23:11.162Z,95.90
2019-04-30T03:25:40.742Z,96.10
2019-04-30T03:28:10.044Z,96.10
2019-04-30T03:30:41.826Z,96.20
2019-04-30T03:33:12.735Z,96.40
2019-04-30T03:35:47.461Z,96.60
2019-04-30T03:38:12.597Z,97.00
2019-04-30T03:40:41.887Z,96.80
2019-04-30T03:43:11.173Z,96.60
2019-04-30T03:45:40.458Z,96.90
2019-04-30T03:48:10.269Z,96.90
2019-04-30T03:50:50.182Z,97.00
2019-04-30T03:53:11.951Z,97.20
2019-04-30T03:55:41.231Z,97.50
2019-04-30T03:58:10.775Z,97.80
2019-04-30T04:00:42.483Z,97.30
2019-04-30T04:03:12.088Z,97.40
2019-04-30T04:05:43.013Z,97.10
2019-04-30T04:08:13.946Z,96.90
2019-04-30T04:10:45.163Z,97.00
2019-04-30T04:13:14.465Z,97.10
2019-04-30T04:15:43.750Z,97.80
2019-04-30T04:18:13.069Z,97.50
2019-04-30T04:20:43.030Z,97.50
2019-04-30T04:23:12.332Z,97.10
2019-04-30T04:25:41.624Z,97.00
2019-04-30T04:28:10.902Z,97.00
2019-04-30T04:30:42.962Z,96.90
2019-04-30T04:33:11.167Z,97.40
2019-04-30T04:35:41.417Z,97.30
2019-04-30T04:38:12.709Z,97.10
2019-04-30T04:40:41.682Z,97.00
2019-04-30T04:43:11.237Z,96.80
2019-04-30T04:45:43.811Z,96.80
2019-04-30T04:48:11.504Z,96.90
2019-04-30T04:50:40.793Z,97.00
2019-04-30T04:53:11.592Z,96.90
2019-04-30T04:55:42.214Z,96.80
2019-04-30T04:58:12.845Z,96.80
2019-04-30T05:00:42.478Z,96.70
2019-04-30T05:03:13.389Z,96.90
2019-04-30T05:05:42.674Z,96.70
2019-04-30T05:08:12.291Z,96.70
2019-04-30T05:10:41.576Z,95.60
2019-04-30T05:13:10.858Z,95.50
2019-04-30T05:15:40.144Z,95.40
2019-04-30T05:18:09.429Z,95.80
2019-04-30T05:20:41.536Z,95.90
2019-04-30T05:23:10.076Z,95.70
2019-04-30T05:25:39.378Z,95.60
2019-04-30T05:28:08.784Z,95.80
2019-04-30T05:30:39.304Z,96.00
2019-04-30T05:33:09.089Z,95.50
2019-04-30T05:35:38.856Z,95.60
2019-04-30T05:38:09.283Z,95.30
2019-04-30T05:40:39.798Z,95.80
2019-04-30T05:43:11.330Z,95.90
2019-04-30T05:45:40.809Z,96.00
2019-04-30T05:48:10.136Z,96.00
2019-04-30T05:50:39.725Z,95.90
2019-04-30T05:53:09.139Z,95.80
2019-04-30T05:55:39.486Z,95.80
2019-04-30T05:58:09.479Z,95.80
2019-04-30T06:00:39.946Z,95.90
2019-04-30T06:03:09.673Z,95.70
2019-04-30T06:05:39.463Z,95.50
2019-04-30T06:08:11.494Z,95.80
2019-04-30T06:10:42.728Z,95.30
2019-04-30T06:13:14.729Z,95.10
2019-04-30T06:15:54.565Z,95.10
2019-04-30T06:18:23.857Z,95.20
2019-04-30T06:20:53.453Z,95.10
2019-04-30T06:23:24.080Z,95.00
2019-04-30T06:25:59.355Z,94.30
2019-04-30T06:28:25.146Z,92.30
2019-04-30T06:30:54.760Z,90.60
2019-04-30T06:33:24.051Z,88.00
2019-04-30T06:35:53.670Z,88.70
2019-04-30T06:38:22.960Z,89.00
2019-04-30T06:40:52.573Z,88.70
2019-04-30T06:43:22.309Z,89.80
2019-04-30T06:45:52.193Z,88.80
2019-04-30T06:48:22.030Z,88.70
2019-04-30T06:50:51.313Z,88.90
2019-04-30T06:53:20.593Z,87.90
2019-04-30T06:55:50.121Z,87.90
2019-04-30T06:58:20.574Z,87.40
2019-04-30T07:00:50.081Z,87.30
2019-04-30T07:03:19.370Z,86.60
2019-04-30T07:05:48.994Z,86.50
2019-04-30T07:08:42.473Z,86.60
2019-04-30T07:11:23.526Z,85.90
2019-04-30T07:13:53.417Z,85.90
2019-04-30T07:16:22.701Z,85.50
2019-04-30T07:18:52.153Z,84.50
2019-04-30T07:21:21.438Z,84.70
2019-04-30T07:23:50.714Z,84.50
2019-04-30T07:26:24.309Z,84.40
2019-04-30T07:28:54.897Z,84.00
2019-04-30T07:31:22.003Z,84.20
2019-04-30T07:33:53.760Z,84.00
2019-04-30T07:36:22.672Z,83.30
2019-04-30T07:38:56.399Z,81.80
2019-04-30T07:41:24.059Z,81.00
2019-04-30T07:43:53.337Z,79.80
2019-04-30T07:46:22.852Z,79.10
2019-04-30T07:48:52.438Z,78.10
2019-04-30T07:51:22.455Z,78.10
2019-04-30T07:53:52.392Z,77.20
2019-04-30T07:56:27.971Z,76.10
2019-04-30T07:58:52.666Z,76.10
2019-04-30T08:01:22.042Z,75.50
2019-04-30T08:04:11.269Z,74.40
2019-04-30T08:06:40.729Z,74.80
2019-04-30T08:09:10.859Z,73.30
2019-04-30T08:11:43.511Z,72.90
2019-04-30T08:14:11.129Z,73.10
2019-04-30T08:16:40.420Z,72.60
2019-04-30T08:19:10.061Z,71.80
2019-04-30T08:21:39.358Z,73.30
2019-04-30T08:24:09.249Z,72.40
2019-04-30T08:26:39.746Z,71.90
2019-04-30T08:29:09.671Z,71.40
2019-04-30T08:31:40.830Z,70.50
2019-04-30T08:34:10.955Z,71.40
2019-04-30T08:36:40.493Z,71.20
2019-04-30T08:39:09.841Z,70.20
2019-04-30T08:41:39.299Z,71.00
2019-04-30T08:44:09.725Z,71.20
2019-04-30T08:46:39.012Z,70.90
2019-04-30T08:49:09.664Z,70.60
2019-04-30T08:51:40.429Z,71.00
2019-04-30T08:54:10.201Z,71.10
2019-04-30T08:56:39.481Z,70.50
2019-04-30T08:59:11.097Z,69.40
2019-04-30T09:01:39.804Z,70.40
2019-04-30T09:04:10.464Z,70.40
2019-04-30T09:06:40.156Z,69.40
2019-04-30T09:09:12.262Z,69.80
2019-04-30T09:11:51.953Z,69.90
2019-04-30T09:14:12.530Z,68.80
2019-04-30T09:16:41.860Z,69.10
2019-04-30T09:19:12.790Z,69.60
2019-04-30T09:21:42.069Z,68.50
2019-04-30T09:24:11.750Z,69.50
2019-04-30T09:26:41.029Z,69.40
2019-04-30T09:29:10.557Z,68.40
2019-04-30T09:31:41.030Z,69.30
2019-04-30T09:34:17.480Z,69.10
2019-04-30T09:36:41.593Z,69.00
2019-04-30T09:39:10.883Z,69.00
2019-04-30T09:41:41.142Z,70.20
2019-04-30T09:44:10.598Z,70.70
2019-04-30T09:46:39.873Z,69.30
2019-04-30T09:49:09.671Z,70.10
2019-04-30T09:51:39.827Z,70.60
2019-04-30T09:54:12.398Z,70.10
2019-04-30T09:56:40.893Z,70.00
2019-04-30T09:59:10.177Z,69.30
2019-04-30T10:01:39.634Z,68.50
2019-04-30T10:04:10.348Z,68.40
2019-04-30T10:06:40.458Z,68.00
2019-04-30T10:09:11.976Z,68.00
2019-04-30T10:11:43.214Z,66.40
2019-04-30T10:14:12.492Z,66.00
2019-04-30T10:16:52.365Z,65.60
2019-04-30T10:19:21.663Z,65.10
2019-04-30T10:21:51.005Z,66.90
2019-04-30T10:24:20.297Z,65.00
2019-04-30T10:26:49.806Z,65.60
2019-04-30T10:29:21.423Z,65.80
2019-04-30T10:31:51.274Z,66.00
2019-04-30T10:34:20.551Z,63.10
2019-04-30T10:36:49.833Z,63.90
2019-04-30T10:39:21.795Z,62.80
2019-04-30T10:41:50.685Z,63.40
2019-04-30T10:44:19.981Z,64.20
2019-04-30T10:46:49.263Z,65.00
2019-04-30T10:49:19.324Z,65.90
2019-04-30T10:51:49.329Z,64.20
2019-04-30T10:54:26.167Z,63.30
2019-04-30T10:56:51.390Z,62.20
2019-04-30T10:59:21.835Z,63.30
2019-04-30T11:01:51.121Z,60.20
2019-04-30T11:04:20.397Z,60.20
2019-04-30T11:06:49.689Z,61.70
2019-04-30T11:09:19.032Z,61.40
2019-04-30T11:11:49.726Z,62.70
2019-04-30T11:14:20.179Z,62.80
2019-04-30T11:16:51.752Z,62.90
2019-04-30T11:19:21.873Z,63.00
2019-04-30T11:21:51.437Z,62.80
2019-04-30T11:24:21.081Z,60.00
2019-04-30T11:26:51.185Z,58.20
2019-04-30T11:29:23.018Z,58.70
2019-04-30T11:32:03.169Z,58.40
2019-04-30T11:34:32.943Z,59.40
2019-04-30T11:37:02.553Z,59.60
2019-04-30T11:39:31.844Z,60.70
2019-04-30T11:42:01.199Z,60.20
2019-04-30T11:44:31.598Z,59.20
2019-04-30T11:47:05.061Z,58.00
2019-04-30T11:49:34.345Z,59.90
2019-04-30T11:52:03.886Z,59.20
2019-04-30T11:54:33.169Z,59.70
2019-04-30T11:57:02.463Z,58.80
2019-04-30T11:59:31.733Z,59.80
2019-04-30T12:02:02.649Z,58.80
2019-04-30T12:04:31.933Z,58.40
2019-04-30T12:07:02.859Z,58.50
2019-04-30T12:09:41.041Z,59.50
2019-04-30T12:12:10.399Z,59.70
2019-04-30T12:14:39.683Z,59.60
2019-04-30T12:17:08.957Z,60.90
2019-04-30T12:19:38.847Z,58.10
2019-04-30T12:22:08.293Z,58.70
2019-04-30T12:24:38.934Z,60.00
2019-04-30T12:27:08.317Z,60.40
2019-04-30T12:29:39.630Z,62.00
2019-04-30T12:32:08.574Z,60.80
2019-04-30T12:34:37.859Z,61.70
2019-04-30T12:37:10.560Z,60.20
2019-04-30T12:39:39.468Z,58.90
2019-04-30T12:42:09.153Z,58.70
2019-04-30T12:44:40.112Z,59.40
2019-04-30T12:47:09.721Z,58.80
2019-04-30T12:49:46.643Z,59.90
2019-04-30T12:52:23.510Z,60.20
2019-04-30T12:54:57.882Z,59.50
2019-04-30T12:57:31.711Z,59.40
2019-04-30T13:00:00.995Z,59.50
2019-04-30T13:02:30.593Z,59.70
2019-04-30T13:05:00.552Z,60.60
2019-04-30T13:07:30.865Z,61.00
2019-04-30T13:10:03.506Z,59.70
2019-04-30T13:12:33.574Z,60.20
2019-04-30T13:15:03.366Z,60.60
2019-04-30T13:17:32.641Z,60.30
2019-04-30T13:20:01.933Z,60.80
2019-04-30T13:22:32.300Z,60.80
2019-04-30T13:25:01.637Z,63.00
2019-04-30T13:27:32.666Z,61.60
2019-04-30T13:30:04.317Z,61.50
2019-04-30T13:32:35.411Z,61.90
2019-04-30T13:35:06.629Z,60.80
2019-04-30T13:37:38.975Z,61.30
2019-04-30T13:40:28.560Z,60.30
2019-04-30T13:42:59.873Z,60.90
2019-04-30T13:45:29.466Z,61.00
2019-04-30T13:47:58.946Z,60.80
2019-04-30T13:50:29.235Z,60.10
2019-04-30T13:52:58.853Z,59.70
2019-04-30T13:55:30.468Z,59.80
2019-04-30T13:57:59.652Z,61.30
2019-04-30T14:00:30.303Z,60.20
2019-04-30T14:03:19.205Z,61.30
2019-04-30T14:05:49.159Z,60.80
2019-04-30T14:08:21.580Z,60.50
2019-04-30T14:10:50.868Z,61.80
2019-04-30T14:13:20.617Z,60.00
2019-04-30T14:15:49.901Z,61.20
2019-04-30T14:18:28.557Z,60.70
2019-04-30T14:20:50.506Z,61.30
2019-04-30T14:23:19.794Z,60.50
2019-04-30T14:25:56.461Z,60.70
2019-04-30T14:28:20.347Z,61.30
2019-04-30T14:30:49.637Z,60.40
2019-04-30T14:33:26.291Z,60.00
2019-04-30T14:35:50.240Z,59.80
2019-04-30T14:38:19.589Z,59.40
2019-04-30T14:40:51.010Z,60.70
2019-04-30T14:43:30.765Z,59.70
2019-04-30T14:49:24.694Z,60.40
2019-04-30T14:51:54.572Z,60.60
2019-04-30T14:54:35.074Z,59.90
2019-04-30T14:57:15.077Z,60.20
2019-04-30T14:59:45.997Z,60.00
2019-04-30T15:02:32.613Z,59.40
2019-04-30T15:05:02.295Z,60.80
2019-04-30T15:07:31.750Z,59.90
2019-04-30T15:10:01.113Z,59.70
2019-04-30T15:12:30.473Z,60.20
2019-04-30T15:14:59.756Z,60.80
2019-04-30T15:17:29.070Z,60.60
2019-04-30T15:19:58.866Z,60.70
2019-04-30T15:22:29.044Z,60.20
2019-04-30T15:24:59.181Z,59.60
2019-04-30T15:27:29.025Z,60.40
2019-04-30T15:29:59.692Z,60.80
2019-04-30T15:32:28.981Z,60.70
2019-04-30T15:34:58.993Z,59.90
2019-04-30T15:37:28.764Z,59.80
2019-04-30T15:39:59.114Z,60.40
2019-04-30T15:42:29.067Z,59.60
2019-04-30T15:44:59.541Z,59.70
2019-04-30T15:47:28.993Z,60.20
2019-04-30T15:50:02.144Z,59.90
2019-04-30T15:52:30.333Z,60.10
2019-04-30T15:54:59.875Z,60.70
2019-04-30T15:57:29.587Z,60.10
2019-04-30T15:59:58.923Z,60.10
2019-04-30T16:02:33.059Z,59.80
2019-04-30T16:05:04.457Z,59.50
2019-04-30T16:07:35.373Z,60.50
2019-04-30T16:10:14.525Z,60.90
2019-04-30T16:12:45.770Z,59.80
2019-04-30T16:15:15.149Z,59.20
2019-04-30T16:17:49.443Z,60.20
2019-04-30T16:20:18.778Z,59.80
2019-04-30T16:22:49.346Z,60.20
2019-04-30T16:25:19.393Z,60.50
2019-04-30T16:27:49.851Z,61.10
2019-04-30T16:30:19.640Z,60.40
2019-04-30T16:32:50.705Z,60.20
2019-04-30T16:35:20.229Z,60.00
2019-04-30T16:37:49.691Z,59.70
2019-04-30T16:40:19.176Z,60.30
2019-04-30T16:42:49.043Z,60.40
2019-04-30T16:45:19.578Z,60.40
2019-04-30T16:47:48.998Z,60.10
2019-04-30T16:50:18.866Z,60.40
2019-04-30T16:52:49.809Z,60.00
2019-04-30T16:55:19.161Z,60.20
2019-04-30T16:57:50.154Z,59.70
2019-04-30T17:00:20.253Z,59.80
2019-04-30T17:02:51.236Z,60.10
2019-04-30T17:05:22.809Z,59.80
2019-04-30T17:08:11.330Z,60.50
2019-04-30T17:10:45.372Z,60.20
2019-04-30T17:13:19.349Z,61.00
2019-04-30T17:15:50.268Z,61.50
2019-04-30T17:18:19.549Z,61.50
2019-04-30T17:20:49.310Z,61.90
2019-04-30T17:23:19.334Z,61.70
2019-04-30T17:25:48.833Z,62.30
2019-04-30T17:28:18.897Z,61.60
2019-04-30T17:30:49.178Z,67.70
2019-04-30T17:33:19.106Z,69.30
2019-04-30T17:35:49.891Z,70.00
2019-04-30T17:38:24.296Z,70.40
2019-04-30T17:40:53.857Z,71.10
2019-04-30T17:43:24.600Z,71.70
2019-04-30T17:45:54.096Z,72.30
2019-04-30T17:48:23.713Z,72.70
2019-04-30T17:50:53.009Z,73.20
2019-04-30T17:53:23.579Z,73.70
2019-04-30T17:55:52.885Z,73.90
2019-04-30T17:58:22.169Z,74.20
2019-04-30T18:00:53.389Z,74.20
2019-04-30T18:03:22.677Z,74.70
2019-04-30T18:05:52.030Z,75.00
2019-04-30T18:08:21.424Z,75.10
2019-04-30T18:10:50.769Z,74.80
2019-04-30T18:13:20.069Z,75.10
2019-04-30T18:15:49.648Z,75.60
2019-04-30T18:18:26.262Z,76.00
2019-04-30T18:21:06.100Z,76.20
2019-04-30T18:23:45.769Z,76.20
2019-04-30T18:26:17.117Z,76.60
2019-04-30T18:28:46.731Z,76.80
2019-04-30T18:31:16.024Z,76.40
2019-04-30T18:33:45.665Z,76.70
2019-04-30T18:36:14.947Z,77.00
2019-04-30T18:38:44.249Z,76.80
2019-04-30T18:41:13.598Z,76.90
2019-04-30T18:43:43.158Z,77.10
2019-04-30T18:46:12.509Z,77.40
2019-04-30T18:48:41.794Z,77.00
2019-04-30T18:51:23.955Z,77.30
2019-04-30T18:53:42.309Z,77.70
2019-04-30T18:56:14.618Z,77.90
2019-04-30T18:58:43.324Z,77.50
2019-04-30T19:01:12.683Z,77.80
2019-04-30T19:03:42.322Z,77.80
2019-04-30T19:06:23.672Z,78.30
2019-04-30T19:08:49.436Z,78.30
2019-04-30T19:11:29.457Z,78.40
2019-04-30T19:14:00.381Z,78.50
2019-04-30T19:16:31.651Z,78.80
2019-04-30T19:19:02.770Z,78.80
2019-04-30T19:21:32.177Z,78.80
2019-04-30T19:24:01.545Z,78.80
2019-04-30T19:26:30.829Z,79.00
2019-04-30T19:29:00.361Z,79.00
2019-04-30T19:31:29.694Z,79.00
2019-04-30T19:33:59.011Z,78.90
2019-04-30T19:36:37.286Z,78.90
2019-04-30T19:38:59.754Z,79.20
2019-04-30T19:41:29.246Z,79.40
2019-04-30T19:43:58.530Z,79.60
2019-04-30T19:46:29.420Z,79.70
2019-04-30T19:48:58.885Z,80.00
2019-04-30T19:51:29.655Z,80.00
2019-04-30T19:53:59.865Z,80.00
2019-04-30T19:56:30.434Z,79.80
2019-04-30T19:59:05.273Z,79.90
2019-04-30T20:01:33.542Z,80.40
2019-04-30T20:04:02.826Z,80.40
2019-04-30T20:06:32.110Z,80.50
2019-04-30T20:09:01.621Z,80.90
2019-04-30T20:11:32.753Z,81.10
2019-04-30T20:14:02.033Z,81.40
2019-04-30T20:16:31.325Z,81.60
2019-04-30T20:19:00.611Z,81.80
2019-04-30T20:21:45.702Z,82.00
2019-04-30T20:24:01.602Z,82.00
2019-04-30T20:26:31.857Z,82.10
2019-04-30T20:29:01.138Z,82.40
2019-04-30T20:31:30.421Z,82.80
2019-04-30T20:34:01.470Z,83.10
2019-04-30T20:36:30.893Z,83.40
2019-04-30T20:39:01.805Z,83.50
2019-04-30T20:41:33.378Z,83.50
2019-04-30T20:44:03.862Z,83.50
2019-04-30T20:46:35.277Z,83.50
2019-04-30T20:49:04.417Z,83.50
2019-04-30T20:51:33.722Z,83.40
2019-04-30T20:54:03.002Z,83.30
2019-04-30T20:56:32.293Z,83.20
2019-04-30T20:59:05.387Z,83.30
2019-04-30T21:01:32.782Z,83.20
2019-04-30T21:04:02.305Z,83.20
2019-04-30T21:06:31.824Z,83.30
2019-04-30T21:09:01.114Z,83.50
2019-04-30T21:11:32.010Z,83.40
2019-04-30T21:14:01.294Z,83.60
2019-04-30T21:16:30.575Z,83.70
2019-04-30T21:18:59.854Z,83.80
2019-04-30T21:21:29.133Z,84.00
2019-04-30T21:23:58.648Z,84.00
2019-04-30T21:26:27.997Z,84.10
2019-04-30T21:29:10.444Z,84.10
2019-04-30T21:31:29.962Z,84.20
2019-04-30T21:34:19.612Z,84.30
2019-04-30T21:36:49.637Z,84.20
2019-04-30T21:39:20.153Z,84.10
2019-04-30T21:41:49.542Z,84.30
2019-04-30T21:44:18.855Z,84.10
2019-04-30T21:46:48.207Z,84.30
2019-04-30T21:49:17.872Z,84.40
2019-04-30T21:51:47.440Z,84.60
2019-04-30T21:54:17.021Z,84.60
2019-04-30T21:56:46.298Z,84.90
2019-04-30T21:59:24.083Z,84.80
2019-04-30T22:01:46.849Z,84.90
2019-04-30T22:04:16.311Z,84.90
2019-04-30T22:06:45.926Z,85.10
2019-04-30T22:09:15.629Z,85.10
2019-04-30T22:11:46.109Z,85.20
2019-04-30T22:14:16.114Z,85.40
2019-04-30T22:16:45.485Z,85.50
2019-04-30T22:19:15.061Z,85.40
2019-04-30T22:21:44.345Z,85.60
2019-04-30T22:24:13.630Z,85.70
2019-04-30T22:26:42.905Z,85.70
2019-04-30T22:29:12.193Z,85.70
2019-04-30T22:31:41.468Z,85.80
2019-04-30T22:34:10.757Z,86.00
2019-04-30T22:36:41.675Z,86.10
2019-04-30T22:39:21.660Z,86.20
2019-04-30T22:41:51.238Z,86.20
2019-04-30T22:44:20.524Z,86.20
2019-04-30T22:46:49.810Z,86.20
2019-04-30T22:49:19.086Z,86.20
2019-04-30T22:51:48.607Z,86.30
2019-04-30T22:54:18.108Z,86.30
2019-04-30T22:56:47.401Z,86.20
2019-04-30T22:59:16.685Z,86.30
2019-04-30T23:01:56.737Z,86.60
2019-04-30T23:04:33.757Z,86.70
2019-04-30T23:07:03.273Z,86.70
2019-04-30T23:09:32.552Z,86.60
2019-04-30T23:12:03.141Z,86.60
2019-04-30T23:14:33.525Z,86.80
2019-04-30T23:17:02.881Z,86.60
2019-04-30T23:19:32.153Z,86.30
2019-04-30T23:22:01.609Z,86.60
2019-04-30T23:24:31.857Z,86.30
2019-04-30T23:27:01.140Z,86.20
2019-04-30T23:29:30.416Z,86.50
2019-04-30T23:31:59.701Z,86.50
2019-04-30T23:34:28.981Z,86.40
2019-04-30T23:36:58.270Z,86.20
2019-04-30T23:39:27.549Z,86.70
2019-04-30T23:41:56.869Z,87.10
2019-04-30T23:44:26.374Z,87.90
2019-04-30T23:46:55.940Z,89.90
2019-04-30T23:49:25.458Z,91.20
2019-04-30T23:51:54.753Z,92.00
2019-04-30T23:54:24.040Z,91.30
2019-04-30T23:56:53.321Z,90.70
2019-04-30T23:59:22.857Z,90.40
